createdAt,value
2023-04-09T00:00:44.034Z,37.25
2023-04-09T00:03:10.881Z,35.47
2023-04-09T00:05:41.599Z,36.65
2023-04-09T00:08:08.533Z,39.30
2023-04-09T00:10:35.405Z,34.50
2023-04-09T00:13:02.196Z,32.47
2023-04-09T00:15:31.659Z,34.75
2023-04-09T00:17:59.520Z,37.45
2023-04-09T00:20:26.539Z,34.33
2023-04-09T00:22:54.023Z,35.85
2023-04-09T00:25:21.108Z,35.65
2023-04-09T00:27:47.941Z,34.92
2023-04-09T00:30:14.764Z,38.78
2023-04-09T00:32:41.801Z,30.35
2023-04-09T00:35:09.260Z,39.22
2023-04-09T00:37:36.023Z,32.20
2023-04-09T00:40:03.046Z,42.25
2023-04-09T00:42:37.448Z,36.08
2023-04-09T00:45:05.996Z,36.38
2023-04-09T00:47:34.303Z,34.60
2023-04-09T00:50:01.803Z,34.33
2023-04-09T00:52:32.212Z,40.42
2023-04-09T00:55:05.364Z,39.05
2023-04-09T00:57:32.267Z,34.30
2023-04-09T00:59:59.021Z,36.50
2023-04-09T01:02:26.752Z,31.05
2023-04-09T01:04:53.802Z,32.47
2023-04-09T01:07:39.476Z,35.85
2023-04-09T01:13:06.297Z,42.70
2023-04-09T01:15:38.566Z,40.50
2023-04-09T01:18:24.446Z,31.02
2023-04-09T01:21:19.101Z,40.13
2023-04-09T01:23:57.107Z,32.88
2023-04-09T01:26:52.216Z,34.22
2023-04-09T01:29:22.829Z,36.80
2023-04-09T01:31:50.328Z,43.63
2023-04-09T01:34:18.035Z,44.65
2023-04-09T01:36:52.048Z,40.25
2023-04-09T01:39:19.385Z,40.13
2023-04-09T01:41:48.273Z,42.25
2023-04-09T01:44:16.774Z,40.60
2023-04-09T01:46:43.919Z,35.95
2023-04-09T01:49:11.816Z,40.42
2023-04-09T01:51:38.829Z,38.45
2023-04-09T01:54:05.712Z,39.22
2023-04-09T01:56:46.509Z,38.38
2023-04-09T01:59:13.863Z,38.63
2023-04-09T02:01:50.556Z,47.88
2023-04-09T02:04:24.464Z,42.60
2023-04-09T02:07:09.947Z,38.35
2023-04-09T02:09:39.365Z,42.50
2023-04-09T02:12:10.757Z,47.63
2023-04-09T02:14:38.307Z,33.05
2023-04-09T02:17:05.355Z,35.65
2023-04-09T02:19:42.179Z,44.63
2023-04-09T02:22:09.371Z,46.05
2023-04-09T02:24:36.597Z,37.92
2023-04-09T02:27:04.257Z,40.63
2023-04-09T02:29:31.833Z,40.83
2023-04-09T02:31:58.666Z,41.75
2023-04-09T02:34:26.081Z,46.30
2023-04-09T02:36:53.108Z,37.40
2023-04-09T02:39:20.046Z,34.35
2023-04-09T02:41:46.773Z,35.58
2023-04-09T02:44:13.588Z,44.80
2023-04-09T02:46:41.657Z,38.33
2023-04-09T02:49:08.516Z,44.45
2023-04-09T02:51:36.064Z,31.73
2023-04-09T02:54:03.748Z,39.88
2023-04-09T02:56:30.670Z,33.30
2023-04-09T02:58:57.433Z,42.10
2023-04-09T03:01:24.300Z,39.40
2023-04-09T03:03:51.280Z,35.13
2023-04-09T03:06:18.620Z,35.58
2023-04-09T03:08:45.826Z,35.38
2023-04-09T03:11:12.644Z,36.00
2023-04-09T03:13:39.553Z,33.53
2023-04-09T03:16:06.703Z,37.88
2023-04-09T03:18:33.505Z,42.15
2023-04-09T03:21:00.251Z,34.30
2023-04-09T03:23:27.013Z,43.03
2023-04-09T03:26:01.450Z,37.55
2023-04-09T03:28:28.454Z,40.65
2023-04-09T03:30:55.228Z,42.28
2023-04-09T03:33:22.079Z,41.15
2023-04-09T03:35:48.865Z,46.10
2023-04-09T03:38:15.696Z,36.78
2023-04-09T03:40:42.914Z,38.40
2023-04-09T03:43:09.670Z,41.13
2023-04-09T03:45:36.452Z,37.25
2023-04-09T03:48:03.345Z,32.60
2023-04-09T03:50:30.111Z,38.22
2023-04-09T03:52:56.874Z,46.15
2023-04-09T03:55:23.772Z,43.10
2023-04-09T03:57:50.615Z,35.97
2023-04-09T04:00:17.491Z,41.95
2023-04-09T04:02:44.421Z,39.10
2023-04-09T04:05:12.142Z,34.80
2023-04-09T04:07:39.022Z,40.15
2023-04-09T04:10:06.945Z,43.38
2023-04-09T04:12:33.734Z,32.75
2023-04-09T04:15:01.921Z,37.35
2023-04-09T04:17:28.687Z,40.55
2023-04-09T04:19:55.699Z,37.75
2023-04-09T04:22:24.202Z,37.65
2023-04-09T04:24:52.369Z,37.03
2023-04-09T04:27:19.104Z,41.53
2023-04-09T04:29:45.871Z,34.97
2023-04-09T04:32:12.584Z,34.83
2023-04-09T04:34:39.361Z,35.85
2023-04-09T04:37:06.123Z,36.17
2023-04-09T04:39:32.886Z,43.05
2023-04-09T04:41:59.585Z,45.53
2023-04-09T04:44:26.409Z,38.63
2023-04-09T04:46:53.148Z,41.92
2023-04-09T04:49:19.906Z,32.70
2023-04-09T04:51:46.666Z,36.08
2023-04-09T04:54:13.483Z,35.22
2023-04-09T04:56:40.199Z,48.17
2023-04-09T04:59:06.972Z,36.15
2023-04-09T05:01:33.824Z,43.05
2023-04-09T05:04:03.081Z,39.53
2023-04-09T05:06:30.040Z,49.05
2023-04-09T05:08:58.108Z,48.92
2023-04-09T05:11:25.470Z,32.63
2023-04-09T05:13:52.334Z,37.72
2023-04-09T05:16:20.106Z,40.28
2023-04-09T05:18:47.489Z,37.40
2023-04-09T05:21:14.326Z,34.78
2023-04-09T05:23:41.373Z,37.00
2023-04-09T05:26:08.183Z,42.65
2023-04-09T05:28:34.979Z,47.53
2023-04-09T05:31:01.958Z,50.35
2023-04-09T05:33:28.771Z,38.13
2023-04-09T05:35:55.973Z,39.00
2023-04-09T05:38:22.754Z,41.83
2023-04-09T05:40:49.637Z,37.67
2023-04-09T05:43:16.437Z,46.30
2023-04-09T05:45:43.360Z,39.83
2023-04-09T05:48:10.315Z,37.92
2023-04-09T05:50:51.156Z,41.95
2023-04-09T05:53:21.769Z,42.53
2023-04-09T05:55:51.291Z,47.72
2023-04-09T05:58:21.584Z,48.42
2023-04-09T06:00:48.340Z,39.30
2023-04-09T06:03:15.555Z,45.75
2023-04-09T06:05:42.378Z,37.63
2023-04-09T06:08:09.108Z,44.78
2023-04-09T06:10:36.169Z,44.15
2023-04-09T06:13:02.952Z,49.63
2023-04-09T06:15:29.797Z,50.22
2023-04-09T06:17:58.889Z,41.05
2023-04-09T06:20:26.199Z,47.63
2023-04-09T06:22:52.982Z,39.45
2023-04-09T06:25:19.815Z,44.05
2023-04-09T06:27:46.894Z,42.58
2023-04-09T06:30:13.740Z,48.70
2023-04-09T06:32:53.175Z,49.00
2023-04-09T06:35:21.296Z,42.65
2023-04-09T06:37:48.076Z,41.47
2023-04-09T06:40:14.969Z,52.60
2023-04-09T06:42:41.911Z,42.15
2023-04-09T06:45:09.237Z,48.25
2023-04-09T06:47:36.428Z,56.45
2023-04-09T06:50:03.800Z,45.47
2023-04-09T06:52:30.800Z,43.65
2023-04-09T06:54:57.648Z,44.25
2023-04-09T06:57:24.401Z,49.47
2023-04-09T06:59:51.328Z,44.83
2023-04-09T07:02:18.450Z,40.58
2023-04-09T07:04:45.568Z,54.80
2023-04-09T07:07:12.773Z,55.78
2023-04-09T07:09:39.652Z,46.25
2023-04-09T07:12:06.434Z,52.55
2023-04-09T07:14:33.242Z,42.10
2023-04-09T07:16:59.979Z,49.92
2023-04-09T07:19:26.724Z,57.15
2023-04-09T07:21:53.508Z,51.58
2023-04-09T07:24:20.275Z,55.70
2023-04-09T07:26:47.016Z,69.50
2023-04-09T07:29:13.879Z,57.78
2023-04-09T07:31:41.083Z,49.80
2023-04-09T07:34:07.973Z,57.78
2023-04-09T07:36:34.761Z,51.22
2023-04-09T07:39:01.587Z,61.53
2023-04-09T07:41:28.374Z,61.95
2023-04-09T07:43:55.532Z,63.13
2023-04-09T07:46:22.391Z,51.95
2023-04-09T07:48:50.125Z,63.92
2023-04-09T07:51:17.205Z,55.08
2023-04-09T07:53:44.027Z,59.60
2023-04-09T07:56:11.166Z,48.13
2023-04-09T07:58:38.127Z,56.17
2023-04-09T08:04:42.475Z,54.85
2023-04-09T08:07:09.521Z,54.10
2023-04-09T08:09:36.475Z,53.05
2023-04-09T08:12:03.441Z,67.93
2023-04-09T08:14:30.453Z,59.10
2023-04-09T08:16:57.226Z,52.30
2023-04-09T08:19:24.745Z,51.13
2023-04-09T08:21:52.497Z,59.08
2023-04-09T08:24:19.500Z,63.80
2023-04-09T08:26:46.535Z,57.60
2023-04-09T08:29:15.063Z,68.03
2023-04-09T08:31:42.527Z,55.97
2023-04-09T08:34:09.526Z,67.32
2023-04-09T08:36:37.014Z,68.35
2023-04-09T08:39:04.174Z,91.60
2023-04-09T08:41:31.432Z,76.90
2023-04-09T08:43:59.764Z,63.75
2023-04-09T08:46:27.977Z,65.05
2023-04-09T08:48:55.324Z,64.70
2023-04-09T08:51:24.266Z,62.13
2023-04-09T08:54:03.919Z,84.60
2023-04-09T08:56:31.473Z,67.93
2023-04-09T08:58:58.639Z,74.47
2023-04-09T09:01:31.885Z,73.40
2023-04-09T09:04:06.874Z,86.97
2023-04-09T09:06:38.718Z,167.73
2023-04-09T09:09:07.211Z,195.20
2023-04-09T09:11:36.319Z,136.77
2023-04-09T09:14:23.361Z,119.30
2023-04-09T09:16:56.673Z,88.68
2023-04-09T09:19:26.613Z,68.57
2023-04-09T09:22:01.842Z,62.50
2023-04-09T09:24:28.973Z,111.05
2023-04-09T09:26:57.258Z,124.95
2023-04-09T09:29:24.501Z,96.25
2023-04-09T09:31:53.446Z,55.33
2023-04-09T09:34:23.063Z,56.72
2023-04-09T09:36:50.249Z,54.25
2023-04-09T09:39:18.056Z,56.50
2023-04-09T09:41:46.321Z,68.45
2023-04-09T09:44:30.640Z,67.72
2023-04-09T09:46:58.722Z,62.13
2023-04-09T09:49:25.568Z,40.80
2023-04-09T09:51:56.475Z,48.88
2023-04-09T09:54:26.083Z,50.03
2023-04-09T09:56:56.020Z,64.10
2023-04-09T09:59:32.220Z,54.03
2023-04-09T10:02:07.351Z,45.05
2023-04-09T10:07:06.916Z,65.00
2023-04-09T10:09:37.492Z,46.92
2023-04-09T10:12:06.949Z,75.45
2023-04-09T10:14:35.869Z,61.40
2023-04-09T10:17:03.998Z,53.53
2023-04-09T10:19:34.795Z,56.72
2023-04-09T10:22:11.662Z,53.60
2023-04-09T10:24:39.351Z,42.45
2023-04-09T10:27:15.905Z,51.00
2023-04-09T10:29:48.418Z,46.80
2023-04-09T10:32:23.618Z,56.67
2023-04-09T10:34:51.045Z,43.03
2023-04-09T10:37:23.929Z,57.88
2023-04-09T10:39:52.419Z,43.00
2023-04-09T10:42:24.757Z,43.83
2023-04-09T10:45:04.572Z,45.55
2023-04-09T10:47:33.999Z,56.22
2023-04-09T10:50:22.388Z,64.38
2023-04-09T10:52:56.538Z,53.58
2023-04-09T10:55:39.767Z,61.10
2023-04-09T10:58:11.355Z,65.75
2023-04-09T11:00:44.037Z,59.85
2023-04-09T11:03:27.198Z,51.15
2023-04-09T11:06:09.025Z,41.38
2023-04-09T11:08:38.078Z,46.60
2023-04-09T11:11:05.877Z,93.10
2023-04-09T11:13:34.097Z,67.07
2023-04-09T11:16:03.322Z,75.53
2023-04-09T11:18:30.816Z,58.33
2023-04-09T11:20:59.545Z,66.25
2023-04-09T11:23:26.902Z,69.07
2023-04-09T11:25:54.811Z,66.03
2023-04-09T11:28:21.879Z,73.72
2023-04-09T11:30:51.380Z,66.18
2023-04-09T11:33:20.064Z,53.17
2023-04-09T11:35:47.572Z,56.05
2023-04-09T11:38:14.434Z,58.05
2023-04-09T11:40:49.918Z,59.90
2023-04-09T11:43:17.682Z,50.92
2023-04-09T11:45:47.230Z,51.40
2023-04-09T11:48:15.023Z,82.57
2023-04-09T11:50:41.964Z,74.65
2023-04-09T11:53:22.858Z,56.97
2023-04-09T11:55:53.562Z,57.72
2023-04-09T11:58:25.573Z,55.75
2023-04-09T12:00:58.073Z,56.05
2023-04-09T12:03:35.051Z,65.93
2023-04-09T12:06:03.303Z,53.33
2023-04-09T12:08:31.233Z,54.08
2023-04-09T12:11:07.279Z,58.55
2023-04-09T12:13:34.218Z,54.38
2023-04-09T12:16:03.274Z,47.92
2023-04-09T12:18:30.264Z,43.97
2023-04-09T12:20:57.081Z,64.07
2023-04-09T12:23:23.800Z,48.78
2023-04-09T12:25:50.657Z,42.55
2023-04-09T12:28:18.493Z,53.50
2023-04-09T12:30:46.329Z,57.13
2023-04-09T12:33:13.174Z,53.08
2023-04-09T12:35:40.043Z,56.40
2023-04-09T12:38:07.317Z,49.67
2023-04-09T12:40:35.771Z,47.58
2023-04-09T12:43:03.145Z,50.30
2023-04-09T12:45:30.820Z,46.42
2023-04-09T12:47:58.124Z,57.95
2023-04-09T12:50:25.332Z,59.33
2023-04-09T12:52:54.813Z,72.05
2023-04-09T12:55:22.126Z,39.65
2023-04-09T12:57:50.311Z,43.38
2023-04-09T13:00:17.240Z,36.33
2023-04-09T13:02:44.198Z,41.58
2023-04-09T13:05:11.189Z,38.40
2023-04-09T13:07:40.308Z,53.75
2023-04-09T13:10:09.520Z,76.53
2023-04-09T13:12:36.464Z,109.93
2023-04-09T13:15:03.503Z,45.88
2023-04-09T13:17:30.293Z,55.78
2023-04-09T13:19:57.183Z,36.22
2023-04-09T13:22:23.944Z,39.40
2023-04-09T13:24:50.863Z,44.00
2023-04-09T13:27:17.565Z,43.67
2023-04-09T13:29:44.402Z,40.85
2023-04-09T13:32:11.597Z,58.08
2023-04-09T13:34:39.843Z,41.35
2023-04-09T13:37:06.844Z,49.00
2023-04-09T13:39:33.817Z,48.05
2023-04-09T13:42:07.312Z,41.08
2023-04-09T13:44:42.282Z,46.83
2023-04-09T13:47:11.082Z,46.17
2023-04-09T13:49:38.083Z,33.45
2023-04-09T13:52:05.460Z,45.72
2023-04-09T13:54:33.431Z,60.47
2023-04-09T13:57:00.637Z,33.67
2023-04-09T13:59:27.606Z,39.42
2023-04-09T14:01:54.541Z,43.05
2023-04-09T14:04:21.791Z,42.17
2023-04-09T14:06:48.584Z,38.42
2023-04-09T14:09:15.624Z,42.90
2023-04-09T14:11:42.345Z,37.55
2023-04-09T14:14:09.391Z,40.58
2023-04-09T14:16:36.551Z,44.45
2023-04-09T14:19:03.312Z,37.97
2023-04-09T14:21:30.096Z,43.95
2023-04-09T14:23:56.835Z,46.97
2023-04-09T14:26:24.370Z,41.88
2023-04-09T14:28:52.041Z,46.47
2023-04-09T14:31:21.449Z,43.25
2023-04-09T14:33:48.742Z,40.83
2023-04-09T14:36:15.865Z,43.50
2023-04-09T14:38:42.682Z,42.10
2023-04-09T14:41:09.805Z,37.15
2023-04-09T14:43:36.584Z,36.95
2023-04-09T14:46:04.075Z,45.13
2023-04-09T14:48:30.985Z,43.67
2023-04-09T14:50:58.244Z,34.95
2023-04-09T14:53:25.339Z,39.75
2023-04-09T14:55:52.231Z,41.00
2023-04-09T14:58:18.996Z,40.47
2023-04-09T15:00:45.828Z,37.60
2023-04-09T15:03:12.884Z,38.25
2023-04-09T15:05:39.838Z,39.53
2023-04-09T15:08:06.728Z,36.47
2023-04-09T15:10:33.584Z,39.25
2023-04-09T15:13:00.518Z,33.78
2023-04-09T15:15:27.403Z,33.63
2023-04-09T15:17:54.215Z,37.42
2023-04-09T15:20:21.205Z,44.65
2023-04-09T15:22:48.006Z,35.50
2023-04-09T15:25:14.763Z,34.38
2023-04-09T15:27:41.620Z,36.58
2023-04-09T15:30:08.794Z,30.30
2023-04-09T15:32:35.784Z,35.28
2023-04-09T15:35:02.578Z,34.45
2023-04-09T15:37:29.376Z,33.47
2023-04-09T15:39:56.520Z,33.00
2023-04-09T15:42:23.483Z,38.00
2023-04-09T15:44:50.899Z,32.90
2023-04-09T15:47:17.980Z,31.30
2023-04-09T15:49:44.897Z,37.03
2023-04-09T15:52:11.733Z,36.38
2023-04-09T15:54:38.533Z,30.42
2023-04-09T15:57:05.339Z,34.17
2023-04-09T15:59:32.129Z,29.20
2023-04-09T16:01:59.152Z,32.72
2023-04-09T16:04:26.993Z,41.13
2023-04-09T16:06:55.395Z,30.58
2023-04-09T16:09:22.887Z,33.10
2023-04-09T16:11:51.589Z,29.52
2023-04-09T16:14:18.398Z,34.38
2023-04-09T16:16:49.671Z,32.60
2023-04-09T16:19:17.807Z,36.10
2023-04-09T16:21:45.497Z,36.92
2023-04-09T16:24:15.591Z,23.48
2023-04-09T16:26:44.024Z,28.52
2023-04-09T16:29:11.504Z,26.15
2023-04-09T16:31:39.200Z,25.70
2023-04-09T16:34:06.015Z,24.02
2023-04-09T16:36:36.819Z,26.98
2023-04-09T16:39:04.750Z,31.17
2023-04-09T16:41:33.206Z,30.45
2023-04-09T16:44:00.616Z,28.98
2023-04-09T16:46:27.568Z,30.80
2023-04-09T16:48:54.601Z,30.20
2023-04-09T16:51:21.652Z,49.58
2023-04-09T16:53:48.449Z,53.72
2023-04-09T16:56:16.575Z,37.25
2023-04-09T16:58:43.884Z,32.47
2023-04-09T17:01:10.845Z,39.05
2023-04-09T17:03:38.233Z,27.38
2023-04-09T17:06:05.344Z,34.80
2023-04-09T17:08:32.139Z,33.15
2023-04-09T17:11:02.149Z,33.85
2023-04-09T17:13:35.020Z,33.05
2023-04-09T17:16:03.249Z,33.85
2023-04-09T17:18:30.267Z,25.60
2023-04-09T17:20:57.074Z,34.33
2023-04-09T17:23:23.922Z,40.13
2023-04-09T17:25:50.713Z,45.85
2023-04-09T17:28:18.930Z,56.67
2023-04-09T17:30:46.175Z,46.22
2023-04-09T17:33:13.375Z,49.58
2023-04-09T17:35:41.681Z,44.75
2023-04-09T17:38:08.677Z,54.22
2023-04-09T17:40:35.646Z,51.38
2023-04-09T17:43:02.494Z,59.72
2023-04-09T17:45:29.337Z,62.20
2023-04-09T17:47:57.140Z,68.53
2023-04-09T17:50:24.043Z,72.38
2023-04-09T17:52:50.948Z,78.07
2023-04-09T17:55:18.162Z,74.22
2023-04-09T17:57:44.958Z,89.78
2023-04-09T18:00:12.301Z,112.60
2023-04-09T18:02:39.317Z,102.63
2023-04-09T18:05:07.298Z,92.05
2023-04-09T18:07:34.534Z,76.55
2023-04-09T18:10:02.842Z,81.93
2023-04-09T18:12:30.195Z,93.38
2023-04-09T18:14:57.101Z,90.35
2023-04-09T18:17:26.166Z,74.68
2023-04-09T18:19:58.294Z,78.68
2023-04-09T18:22:26.109Z,83.53
2023-04-09T18:24:53.138Z,88.00
2023-04-09T18:27:21.182Z,118.07
2023-04-09T18:29:49.334Z,148.35
2023-04-09T18:32:17.045Z,134.50
2023-04-09T18:34:45.045Z,123.45
2023-04-09T18:37:12.148Z,110.18
2023-04-09T18:39:38.994Z,111.60
2023-04-09T18:42:05.831Z,109.22
2023-04-09T18:44:36.134Z,108.78
2023-04-09T18:47:05.493Z,106.32
2023-04-09T18:49:35.952Z,117.75
2023-04-09T18:52:05.437Z,86.78
2023-04-09T18:54:36.440Z,83.32
2023-04-09T18:57:06.540Z,51.70
2023-04-09T18:59:34.827Z,50.10
2023-04-09T19:02:05.567Z,59.47
2023-04-09T19:04:39.575Z,60.80
2023-04-09T19:07:06.887Z,60.55
2023-04-09T19:09:34.458Z,54.63
2023-04-09T19:12:01.793Z,56.58
2023-04-09T19:14:28.810Z,58.60
2023-04-09T19:16:55.764Z,65.97
2023-04-09T19:19:23.416Z,68.13
2023-04-09T19:21:50.142Z,55.67
2023-04-09T19:24:16.978Z,50.70
2023-04-09T19:26:43.745Z,55.90
2023-04-09T19:29:10.725Z,70.43
2023-04-09T19:31:37.660Z,48.90
2023-04-09T19:34:06.066Z,39.78
2023-04-09T19:36:33.912Z,33.15
2023-04-09T19:39:00.761Z,40.60
2023-04-09T19:41:27.526Z,36.10
2023-04-09T19:43:54.325Z,59.15
2023-04-09T19:46:21.250Z,50.13
2023-04-09T19:48:48.406Z,42.58
2023-04-09T19:51:20.055Z,40.05
2023-04-09T19:53:47.789Z,31.88
2023-04-09T19:56:14.705Z,32.40
2023-04-09T19:58:43.054Z,33.63
2023-04-09T20:01:10.008Z,26.75
2023-04-09T20:03:37.041Z,30.70
2023-04-09T20:06:10.535Z,27.70
2023-04-09T20:08:38.020Z,30.30
2023-04-09T20:11:05.327Z,26.05
2023-04-09T20:13:33.109Z,28.80
2023-04-09T20:15:59.907Z,25.25
2023-04-09T20:18:26.779Z,30.70
2023-04-09T20:20:53.912Z,31.20
2023-04-09T20:23:20.647Z,45.83
2023-04-09T20:25:51.931Z,47.42
2023-04-09T20:28:18.689Z,45.17
2023-04-09T20:30:46.443Z,40.90
2023-04-09T20:33:13.236Z,45.20
2023-04-09T20:35:40.042Z,45.40
2023-04-09T20:38:06.849Z,52.72
2023-04-09T20:40:37.203Z,50.00
2023-04-09T20:43:04.238Z,52.63
2023-04-09T20:45:31.317Z,45.20
2023-04-09T20:47:58.164Z,33.22
2023-04-09T20:50:25.839Z,37.95
2023-04-09T20:52:52.647Z,33.03
2023-04-09T20:55:19.589Z,31.42
2023-04-09T20:57:46.437Z,36.63
2023-04-09T21:00:13.492Z,32.47
2023-04-09T21:02:41.131Z,31.65
2023-04-09T21:05:19.698Z,29.85
2023-04-09T21:07:50.651Z,35.83
2023-04-09T21:10:17.485Z,36.85
2023-04-09T21:12:44.240Z,35.05
2023-04-09T21:15:11.439Z,40.78
2023-04-09T21:17:38.245Z,33.22
2023-04-09T21:20:05.631Z,35.95
2023-04-09T21:22:33.725Z,33.47
2023-04-09T21:25:00.521Z,27.40
2023-04-09T21:27:27.256Z,25.52
2023-04-09T21:29:54.597Z,32.60
2023-04-09T21:32:21.599Z,31.52
2023-04-09T21:34:48.357Z,34.88
2023-04-09T21:37:15.228Z,30.48
2023-04-09T21:39:42.028Z,34.95
2023-04-09T21:42:08.834Z,37.25
2023-04-09T21:44:35.714Z,32.72
2023-04-09T21:47:07.453Z,33.40
2023-04-09T21:49:39.044Z,32.33
2023-04-09T21:52:08.945Z,35.22
2023-04-09T21:54:36.066Z,34.53
2023-04-09T21:57:02.907Z,33.30
2023-04-09T21:59:29.644Z,26.98
2023-04-09T22:01:56.495Z,26.10
2023-04-09T22:04:23.316Z,33.20
2023-04-09T22:06:50.393Z,34.10
2023-04-09T22:09:17.116Z,27.90
2023-04-09T22:11:43.846Z,26.35
2023-04-09T22:14:11.202Z,31.58
2023-04-09T22:16:38.010Z,32.65
2023-04-09T22:19:04.874Z,29.38
2023-04-09T22:21:32.190Z,34.08
2023-04-09T22:23:58.931Z,22.70
2023-04-09T22:26:25.743Z,24.85
2023-04-09T22:28:52.995Z,26.33
2023-04-09T22:31:20.249Z,21.70
2023-04-09T22:33:47.034Z,34.50
2023-04-09T22:36:33.672Z,28.65
2023-04-09T22:39:00.433Z,28.10
2023-04-09T22:41:27.344Z,25.40
2023-04-09T22:43:55.515Z,26.63
2023-04-09T22:46:22.454Z,32.22
2023-04-09T22:48:50.081Z,30.60
2023-04-09T22:51:17.341Z,40.35
2023-04-09T22:53:44.262Z,30.35
2023-04-09T22:56:11.019Z,22.83
2023-04-09T22:58:38.189Z,26.83
2023-04-09T23:01:05.835Z,26.30
2023-04-09T23:03:32.697Z,29.23
2023-04-09T23:05:59.530Z,34.20
2023-04-09T23:08:26.329Z,29.35
2023-04-09T23:10:54.159Z,27.08
2023-04-09T23:13:21.074Z,34.85
2023-04-09T23:15:47.820Z,29.33
2023-04-09T23:18:14.604Z,32.53
2023-04-09T23:20:41.433Z,34.38
2023-04-09T23:23:08.193Z,33.75
2023-04-09T23:25:34.942Z,30.58
2023-04-09T23:28:01.812Z,31.90
2023-04-09T23:30:28.726Z,26.13
2023-04-09T23:32:57.541Z,28.90
2023-04-09T23:35:24.630Z,25.83
2023-04-09T23:37:51.432Z,31.73
2023-04-09T23:40:18.224Z,25.27
2023-04-09T23:42:45.812Z,31.67
2023-04-09T23:45:12.618Z,21.65
2023-04-09T23:47:39.476Z,28.95
2023-04-09T23:50:07.979Z,29.95
2023-04-09T23:52:37.748Z,29.88
2023-04-09T23:55:08.738Z,29.02
2023-04-09T23:57:35.803Z,25.67
